M I D A S
Marine Information and Data Acquisition System
Tripno 1076 of the Zeeleeuw from 2006-04-26 06:45:50 to 2006-04-26 13:18:57
Back to CruiseResearch ActivitiesStationsMapUnderway DataData graphs

EquipmentUnitsComment
TimeDGPSUTC
LatitudeDGPSDM.mWGS84
LongitudeDGPSDM.mWGS84
HeadingGyrodeg 
SOGDGPSknotsSpeed over ground
COGDGPSdegCourse over ground
DepthEcho soundermeters200 kHz
Missing or incorrect values are displayed as -999
Navigation data collected by the RV Zeeleeuw from 2006-04-26 06:33:57 to 2006-04-26 13:17:11
                                                                                    Next 1000 lines
Time Latitude Longitude Heading SOG COG Depth
2006-04-26 06:34:07 51°13.601 2°56.095 108.4 0.7 281 -999
2006-04-26 06:34:11 51°13.601 2°56.093 108.3 0.9 286 -999
2006-04-26 06:34:15 51°13.602 2°56.091 108.3 1.2 289 4.6
2006-04-26 06:34:21 51°13.602 2°56.087 108.7 1.5 286 4.9
2006-04-26 06:34:26 51°13.603 2°56.083 109.2 1.8 288 -999
2006-04-26 06:34:31 51°13.604 2°56.079 109.8 2.1 287 -999
2006-04-26 06:34:37 51°13.605 2°56.073 109.9 2.3 288 -999
2006-04-26 06:34:41 51°13.606 2°56.068 110 2.5 287 -999
2006-04-26 06:34:46 51°13.607 2°56.063 109.7 2.8 288 -999
2006-04-26 06:34:51 51°13.609 2°56.056 109.6 3.1 286 -999
2006-04-26 06:34:57 51°13.61 2°56.047 109.7 3.5 286 -999
2006-04-26 06:35:01 51°13.611 2°56.04 109.9 3.8 286 -999
2006-04-26 06:35:07 51°13.614 2°56.03 110.1 4.1 286 -999
2006-04-26 06:35:11 51°13.615 2°56.022 110.6 4.3 286 -999
2006-04-26 06:35:17 51°13.617 2°56.011 111.1 4.4 286 -999
2006-04-26 06:35:21 51°13.618 2°56.003 111.9 4.5 287 -999
2006-04-26 06:35:26 51°13.62 2°55.994 113.1 4.6 287 -999
2006-04-26 06:35:31 51°13.622 2°55.984 114.6 4.7 289 -999
2006-04-26 06:35:37 51°13.625 2°55.972 116.5 4.7 291 -999
2006-04-26 06:35:41 51°13.627 2°55.964 118.5 4.8 293 -999
2006-04-26 06:35:47 51°13.631 2°55.952 120.5 4.9 295 -999
2006-04-26 06:35:51 51°13.633 2°55.944 122.3 5 297 -999
2006-04-26 06:35:56 51°13.637 2°55.935 124.4 5.1 299 -999
2006-04-26 06:36:02 51°13.641 2°55.923 126.1 5.1 301 -999
2006-04-26 06:36:07 51°13.645 2°55.914 127.6 5.1 302 -999
2006-04-26 06:36:11 51°13.648 2°55.906 129 5.1 304 -999
2006-04-26 06:36:17 51°13.653 2°55.895 130.3 5.2 305 -999
2006-04-26 06:36:21 51°13.657 2°55.888 131.6 5.2 306 -999
2006-04-26 06:36:27 51°13.662 2°55.877 132.7 5.2 308 -999
2006-04-26 06:36:31 51°13.666 2°55.87 133.4 5.1 309 -999
2006-04-26 06:36:36 51°13.67 2°55.861 133.9 5.1 309 -999
2006-04-26 06:36:41 51°13.675 2°55.853 133.9 5.1 310 -999
2006-04-26 06:36:47 51°13.68 2°55.843 133.6 5 310 -999
2006-04-26 06:36:51 51°13.684 2°55.836 132.8 5 309 -999
2006-04-26 06:36:57 51°13.689 2°55.825 131.9 5.1 309 -999
2006-04-26 06:37:01 51°13.693 2°55.818 130.6 5.2 309 -999
2006-04-26 06:37:07 51°13.698 2°55.807 129 5.3 306 -999
2006-04-26 06:37:11 51°13.701 2°55.8 127 4.9 305 -999
2006-04-26 06:37:17 51°13.705 2°55.79 124.8 4.6 303 -999
2006-04-26 06:37:21 51°13.707 2°55.783 122.7 4.4 301 -999
2006-04-26 06:37:27 51°13.711 2°55.773 120.4 4.2 299 -999
2006-04-26 06:37:31 51°13.713 2°55.767 118.3 4 297 -999
2006-04-26 06:37:36 51°13.715 2°55.76 116.1 3.8 295 -999
2006-04-26 06:37:41 51°13.717 2°55.752 114.5 3.6 294 4.9
2006-04-26 06:37:46 51°13.719 2°55.746 113.1 3.3 292 4.7
2006-04-26 06:37:51 51°13.719 2°55.74 110.9 2.9 291 -999
2006-04-26 06:37:56 51°13.72 2°55.734 108.1 2.6 291 -999
2006-04-26 06:38:01 51°13.721 2°55.729 106.3 2.4 287 -999
2006-04-26 06:38:06 51°13.722 2°55.725 103.7 2 287 -999
2006-04-26 06:38:11 51°13.723 2°55.722 101.3 1.7 284 -999
2006-04-26 06:38:16 51°13.723 2°55.719 99.2 1.4 285 4.8
2006-04-26 06:38:21 51°13.724 2°55.717 96.5 1.1 286 -999
2006-04-26 06:38:27 51°13.724 2°55.715 93.6 0.7 291 -999
2006-04-26 06:38:31 51°13.724 2°55.715 89.9 0.4 300 -999
2006-04-26 06:38:36 51°13.725 2°55.715 86.4 0.3 339 -999
2006-04-26 06:38:41 51°13.725 2°55.715 83.4 0.3 22 -999
2006-04-26 06:38:46 51°13.726 2°55.716 79.5 0.5 43 4.9
2006-04-26 06:38:51 51°13.726 2°55.717 76.1 0.7 49 4.8
2006-04-26 06:38:55 51°13.727 2°55.718 70.9 0.8 52 -999
2006-04-26 06:39:01 51°13.728 2°55.72 66.3 1 52 -999
2006-04-26 06:39:07 51°13.729 2°55.722 60.8 1.1 50 -999
2006-04-26 06:39:11 51°13.73 2°55.724 57.3 1 49 -999
2006-04-26 06:39:17 51°13.731 2°55.725 54.8 0.8 47 -999
2006-04-26 06:39:21 51°13.732 2°55.726 52.4 0.5 46 -999
2006-04-26 06:39:27 51°13.732 2°55.726 49.8 0.2 27 -999
2006-04-26 06:39:31 51°13.732 2°55.726 47.4 0.1 288 -999
2006-04-26 06:39:37 51°13.732 2°55.725 45.5 0.3 237 -999
2006-04-26 06:39:41 51°13.731 2°55.725 44.1 0.6 218 -999
2006-04-26 06:39:46 51°13.73 2°55.724 42.8 0.9 221 4.7
2006-04-26 06:39:51 51°13.729 2°55.722 41.4 1.1 219 -999
2006-04-26 06:39:57 51°13.727 2°55.72 40.2 1.3 220 -999
2006-04-26 06:40:01 51°13.726 2°55.719 39.1 1.2 217 5.1
2006-04-26 06:40:07 51°13.725 2°55.717 38.1 1 218 -999
2006-04-26 06:40:11 51°13.724 2°55.716 37.4 0.9 221 -999
2006-04-26 06:40:17 51°13.724 2°55.715 36.2 0.5 224 -999
2006-04-26 06:40:21 51°13.724 2°55.715 34 -999 1 -999
2006-04-26 06:40:27 51°13.725 2°55.716 30.1 0.6 11 -999
2006-04-26 06:40:31 51°13.726 2°55.716 25.1 1 16 -999
2006-04-26 06:40:36 51°13.728 2°55.717 20.4 1.4 11 -999
2006-04-26 06:40:41 51°13.731 2°55.717 13.7 1.7 5 -999
2006-04-26 06:40:46 51°13.734 2°55.717 7.2 2.1 359 4.9
2006-04-26 06:40:51 51°13.738 2°55.716 2.1 2.5 354 -999
2006-04-26 06:40:55 51°13.741 2°55.715 355.1 2.8 349 9.6
2006-04-26 06:41:01 51°13.746 2°55.713 350.7 3 348 9.3
2006-04-26 06:41:06 51°13.751 2°55.71 345.7 3.5 339 9
2006-04-26 06:41:11 51°13.756 2°55.706 342.7 4.1 337 8.9
2006-04-26 06:41:16 51°13.762 2°55.701 340.1 4.7 335 8.9
2006-04-26 06:41:21 51°13.769 2°55.696 338.2 5.2 334 8.8
2006-04-26 06:41:26 51°13.776 2°55.689 337.1 5.7 332 8.6
2006-04-26 06:41:31 51°13.784 2°55.683 336.2 6.1 331 8.5
2006-04-26 06:41:36 51°13.792 2°55.676 335.3 6.4 331 9.1
2006-04-26 06:41:41 51°13.8 2°55.668 334.4 6.7 330 9.2
2006-04-26 06:41:46 51°13.809 2°55.66 334.1 7 330 9
2006-04-26 06:41:51 51°13.818 2°55.652 334.5 7.3 330 8.9
2006-04-26 06:41:56 51°13.827 2°55.644 335.4 7.5 332 8.9
2006-04-26 06:42:01 51°13.836 2°55.637 336.5 7.7 332 9
2006-04-26 06:42:06 51°13.846 2°55.629 337.4 7.8 333 9
2006-04-26 06:42:11 51°13.856 2°55.621 338.2 2 334 -999
2006-04-26 06:42:17 51°13.869 2°55.612 339.5 8.2 336 -999
2006-04-26 06:42:21 51°13.877 2°55.606 340.1 8.4 335 -999
2006-04-26 06:42:26 51°13.887 2°55.598 340.2 8.3 335 -999
2006-04-26 06:42:31 51°13.898 2°55.59 340.3 8.4 335 -999
2006-04-26 06:42:37 51°13.911 2°55.581 341.2 8.5 336 -999
2006-04-26 06:42:41 51°13.92 2°55.575 342 8.5 337 -999
2006-04-26 06:42:47 51°13.933 2°55.567 342.5 8.6 337 -999
2006-04-26 06:42:51 51°13.942 2°55.561 342.7 8.6 337 -999
2006-04-26 06:42:57 51°13.955 2°55.552 342.8 8.7 337 -999
2006-04-26 06:43:01 51°13.964 2°55.546 342.8 8.6 337 -999
2006-04-26 06:43:07 51°13.977 2°55.537 342.6 8.7 337 -999
2006-04-26 06:43:11 51°13.986 2°55.531 342.1 8.5 336 9.2
2006-04-26 06:43:16 51°13.996 2°55.524 341.3 8.1 336 -999
2006-04-26 06:43:21 51°14.006 2°55.517 340.7 7.7 336 -999
2006-04-26 06:43:27 51°14.017 2°55.508 340.5 7.4 336 -999
2006-04-26 06:43:31 51°14.024 2°55.503 340.4 7.2 335 -999
2006-04-26 06:43:37 51°14.034 2°55.496 340 6.8 335 -999
2006-04-26 06:43:41 51°14.04 2°55.491 339.6 6.6 335 -999
2006-04-26 06:43:47 51°14.05 2°55.483 339.3 6.4 334 -999
2006-04-26 06:43:51 51°14.056 2°55.479 339.4 6.1 335 -999
2006-04-26 06:43:56 51°14.064 2°55.473 339.6 6.1 335 -999
2006-04-26 06:44:01 51°14.071 2°55.467 339.6 5.9 335 -999
2006-04-26 06:44:06 51°14.079 2°55.461 339.3 5.8 334 -999
2006-04-26 06:44:11 51°14.085 2°55.456 338.5 5.6 334 -999
2006-04-26 06:44:17 51°14.094 2°55.449 338.2 5.5 334 -999
2006-04-26 06:44:21 51°14.099 2°55.445 338.2 5.5 333 -999
2006-04-26 06:44:26 51°14.105 2°55.44 338.1 5.3 333 9.3
2006-04-26 06:44:31 51°14.112 2°55.434 338.1 5.3 333 9.3
2006-04-26 06:44:36 51°14.118 2°55.429 338.1 5.2 334 9.3
2006-04-26 06:44:41 51°14.125 2°55.424 337.7 5.3 333 -999
2006-04-26 06:44:46 51°14.132 2°55.418 337.6 5.5 333 -999
2006-04-26 06:44:51 51°14.139 2°55.412 337.5 5.6 333 9.3
2006-04-26 06:44:56 51°14.146 2°55.406 336.9 5.8 332 -999
2006-04-26 06:45:01 51°14.153 2°55.4 335.7 5.9 331 -999
2006-04-26 06:45:06 51°14.16 2°55.392 334.4 6.2 329 -999
2006-04-26 06:45:11 51°14.167 2°55.385 332.9 6.3 328 -999
2006-04-26 06:45:16 51°14.175 2°55.377 331.2 6.4 326 -999
2006-04-26 06:45:21 51°14.182 2°55.368 329.5 6.6 325 -999
2006-04-26 06:45:27 51°14.191 2°55.357 327.8 6.8 323 -999
2006-04-26 06:45:31 51°14.197 2°55.35 326.3 6.9 322 -999
2006-04-26 06:45:36 51°14.205 2°55.34 324.8 7.1 320 -999
2006-04-26 06:45:41 51°14.212 2°55.329 324 7.2 320 -999
2006-04-26 06:45:46 51°14.22 2°55.319 324.1 7.3 320 -999
2006-04-26 06:45:51 51°14.228 2°55.308 324 7.4 320 -999
2006-04-26 06:45:56 51°14.236 2°55.297 323.3 7.5 318 -999
2006-04-26 06:46:01 51°14.243 2°55.286 322.7 7.6 318 -999
2006-04-26 06:46:06 51°14.251 2°55.274 321.8 7.8 316 -999
2006-04-26 06:46:11 51°14.259 2°55.261 320.5 7.9 315 -999
2006-04-26 06:46:16 51°14.267 2°55.248 319.6 8.1 315 -999
2006-04-26 06:46:21 51°14.275 2°55.235 318.6 8.3 313 -999
2006-04-26 06:46:26 51°14.283 2°55.221 318 8.5 313 9.2
2006-04-26 06:46:31 51°14.291 2°55.207 317.7 8.7 312 9.5
2006-04-26 06:46:36 51°14.299 2°55.192 317.4 8.8 313 -999
2006-04-26 06:46:41 51°14.308 2°55.178 317.9 8.9 313 -999
2006-04-26 06:46:46 51°14.317 2°55.164 319.3 9.1 316 9.3
2006-04-26 06:46:51 51°14.326 2°55.15 319.9 9.2 315 9.5
2006-04-26 06:46:56 51°14.335 2°55.135 320 9.5 315 -999
2006-04-26 06:47:01 51°14.345 2°55.12 319.9 9.6 315 -999
2006-04-26 06:47:06 51°14.354 2°55.105 319.3 9.8 315 9.2
2006-04-26 06:47:11 51°14.364 2°55.089 318.8 9.9 314 9.3
2006-04-26 06:47:15 51°14.372 2°55.077 318.8 10 315 9.2
2006-04-26 06:47:20 51°14.382 2°55.06 319.7 10.3 314 9.1
2006-04-26 06:47:26 51°14.394 2°55.04 319.8 10.4 313 9
2006-04-26 06:47:30 51°14.402 2°55.026 319.8 10.7 312 9.1
2006-04-26 06:47:35 51°14.412 2°55.009 320.3 10.8 313 9
2006-04-26 06:47:40 51°14.423 2°54.992 322.6 10.9 316 9
2006-04-26 06:47:46 51°14.438 2°54.974 326.6 11.1 320 9
2006-04-26 06:47:51 51°14.45 2°54.959 329.5 11.2 323 8.8
2006-04-26 06:47:56 51°14.464 2°54.946 333.7 11.3 328 8.7
2006-04-26 06:48:01 51°14.478 2°54.934 338 11.3 331 8.6
2006-04-26 06:48:06 51°14.492 2°54.923 341.3 11.4 333 8.5
2006-04-26 06:48:11 51°14.506 2°54.911 342.4 11.6 332 8.5
2006-04-26 06:48:16 51°14.52 2°54.899 342.5 11.6 333 8.5
2006-04-26 06:48:20 51°14.532 2°54.889 342.4 11.7 331 8.4
2006-04-26 06:48:25 51°14.546 2°54.876 341.1 11.9 330 8.4
2006-04-26 06:48:31 51°14.563 2°54.859 339.8 12.1 329 8.4
2006-04-26 06:48:35 51°14.575 2°54.848 339 12.1 328 8.4
2006-04-26 06:48:40 51°14.589 2°54.833 337.9 12.2 327 8.2
2006-04-26 06:48:45 51°14.604 2°54.817 337 12.3 326 8.2
2006-04-26 06:48:51 51°14.619 2°54.8 336 12.4 325 8.2
2006-04-26 06:48:56 51°14.633 2°54.784 335.4 12.4 325 8.2
2006-04-26 06:49:00 51°14.644 2°54.771 335.1 12.5 324 8.3
2006-04-26 06:49:07 51°14.664 2°54.749 334.5 12.5 325 8.3
2006-04-26 06:49:12 51°14.678 2°54.734 335 12.5 325 8.3
2006-04-26 06:49:16 51°14.69 2°54.722 336.1 12.6 327 8.2
2006-04-26 06:49:22 51°14.709 2°54.705 337.7 12.5 330 8.3
2006-04-26 06:49:27 51°14.724 2°54.693 340 12.5 332 8.4
2006-04-26 06:49:31 51°14.736 2°54.682 341.9 12.5 332 8.3
2006-04-26 06:49:36 51°14.752 2°54.671 343.2 12.5 334 8.2
2006-04-26 06:49:42 51°14.771 2°54.657 343.6 12.5 335 8.4
2006-04-26 06:49:46 51°14.783 2°54.646 344.5 12.5 334 8.1
2006-04-26 06:49:50 51°14.796 2°54.637 344.5 12.5 335 8.1
2006-04-26 06:49:56 51°14.814 2°54.622 344.7 12.5 333 8.1
2006-04-26 06:50:00 51°14.827 2°54.612 343.3 12.5 332 8.1
2006-04-26 06:50:06 51°14.845 2°54.595 341.8 12.5 330 8.1
2006-04-26 06:50:11 51°14.86 2°54.58 340.4 12.6 328 8
2006-04-26 06:50:16 51°14.874 2°54.565 338.8 12.6 327 8
2006-04-26 06:50:20 51°14.886 2°54.552 337.5 12.6 325 8
2006-04-26 06:50:26 51°14.903 2°54.533 335.7 12.6 325 8.1
2006-04-26 06:50:32 51°14.92 2°54.514 335.1 12.6 324 8.1
2006-04-26 06:50:36 51°14.931 2°54.501 334.6 12.7 325 8.1
2006-04-26 06:50:40 51°14.943 2°54.488 334.6 12.7 325 8.1
2006-04-26 06:50:47 51°14.963 2°54.466 335 12.6 326 7.9
2006-04-26 06:50:52 51°14.978 2°54.451 335.7 12.6 326 7.7
2006-04-26 06:50:56 51°14.99 2°54.44 336.4 12.5 329 7.6
2006-04-26 06:51:00 51°15.002 2°54.429 338.5 12.4 330 5.6
2006-04-26 06:51:07 51°15.022 2°54.411 339.8 12.4 331 7.6
2006-04-26 06:51:11 51°15.035 2°54.401 341.1 12.3 332 7.5
2006-04-26 06:51:16 51°15.05 2°54.388 342.2 12.4 332 7.5
2006-04-26 06:51:20 51°15.062 2°54.378 342.8 12.3 333 7.6
2006-04-26 06:51:26 51°15.08 2°54.363 343.7 12.3 332 7.6
2006-04-26 06:51:30 51°15.092 2°54.354 344.3 12.3 334 7.5
2006-04-26 06:51:36 51°15.11 2°54.339 344.8 12.3 334 7.5
2006-04-26 06:51:40 51°15.123 2°54.329 345.4 12.3 334 7.6
2006-04-26 06:51:46 51°15.141 2°54.315 345.4 12.3 334 7.7
2006-04-26 06:51:50 51°15.154 2°54.305 345.3 12.4 333 7.6
2006-04-26 06:51:56 51°15.172 2°54.29 344.8 12.5 333 7.8
2006-04-26 06:52:00 51°15.184 2°54.279 343.9 12.5 331 7.8
2006-04-26 06:52:07 51°15.204 2°54.259 342.6 12.6 329 7.9
2006-04-26 06:52:11 51°15.216 2°54.247 339.8 12.6 327 7.9
2006-04-26 06:52:16 51°15.23 2°54.23 338.5 12.6 324 7.9
2006-04-26 06:52:22 51°15.247 2°54.209 336.3 12.7 323 8
2006-04-26 06:52:26 51°15.258 2°54.196 334.5 12.7 323 8
2006-04-26 06:52:30 51°15.27 2°54.182 333.8 12.8 322 8
2006-04-26 06:52:36 51°15.286 2°54.162 333.4 12.7 323 8.1
2006-04-26 06:52:40 51°15.298 2°54.148 333.4 12.7 323 8.2
2006-04-26 06:52:47 51°15.318 2°54.125 334.1 12.8 324 8.3
2006-04-26 06:52:52 51°15.333 2°54.109 334.9 12.8 326 8.3
2006-04-26 06:52:56 51°15.345 2°54.098 336.5 12.8 328 8.3
2006-04-26 06:53:00 51°15.357 2°54.087 338.7 12.7 330 8.4
2006-04-26 06:53:06 51°15.375 2°54.071 340.9 12.6 332 8.5
2006-04-26 06:53:11 51°15.392 2°54.058 342.5 12.7 333 8.5
2006-04-26 06:53:16 51°15.407 2°54.046 344 12.7 333 8.7
2006-04-26 06:53:20 51°15.42 2°54.036 344.3 12.6 334 8.8
2006-04-26 06:53:26 51°15.439 2°54.021 344.7 12.7 334 8.8
2006-04-26 06:53:31 51°15.454 2°54.009 344.7 12.7 333 8.9
2006-04-26 06:53:36 51°15.47 2°53.996 343.9 12.7 332 9
2006-04-26 06:53:40 51°15.482 2°53.985 343.1 12.7 331 9
2006-04-26 06:53:47 51°15.504 2°53.965 341.7 12.7 330 9
2006-04-26 06:53:51 51°15.516 2°53.953 340.5 12.8 329 9.1
2006-04-26 06:53:56 51°15.531 2°53.939 339.7 12.7 329 9.2
2006-04-26 06:54:02 51°15.549 2°53.92 339.3 12.8 328 9.2
2006-04-26 06:54:07 51°15.564 2°53.906 338.9 12.7 329 9.2
2006-04-26 06:54:11 51°15.576 2°53.895 338.9 12.7 329 9.3
2006-04-26 06:54:16 51°15.591 2°53.881 339.5 12.7 330 9.3
2006-04-26 06:54:20 51°15.604 2°53.87 340.4 12.6 332 9.3
2006-04-26 06:54:26 51°15.622 2°53.855 341.8 12.6 333 9.4
2006-04-26 06:54:32 51°15.641 2°53.84 342.6 12.6 333 9.4
2006-04-26 06:54:36 51°15.654 2°53.83 343.5 12.6 334 9.5
2006-04-26 06:54:42 51°15.672 2°53.816 344 12.6 334 9.5
2006-04-26 06:54:47 51°15.688 2°53.803 344.7 12.6 334 9.5
2006-04-26 06:54:52 51°15.704 2°53.791 344.7 12.6 334 9.6
2006-04-26 06:54:56 51°15.717 2°53.781 344.6 12.6 334 9.6
2006-04-26 06:55:00 51°15.729 2°53.772 344.3 12.6 334 9.7
2006-04-26 06:55:07 51°15.751 2°53.754 344 12.6 333 9.7
2006-04-26 06:55:12 51°15.766 2°53.741 343.3 12.7 332 9.8
2006-04-26 06:55:16 51°15.779 2°53.73 342.6 12.6 332 9.9
2006-04-26 06:55:20 51°15.791 2°53.72 342.5 12.7 332 9.9
2006-04-26 06:55:26 51°15.81 2°53.703 342.3 12.7 331 9.9
2006-04-26 06:55:32 51°15.828 2°53.687 342.1 12.6 332 10
2006-04-26 06:55:36 51°15.84 2°53.677 341.8 12.7 331 10
2006-04-26 06:55:42 51°15.859 2°53.66 341.8 12.6 331 10
2006-04-26 06:55:46 51°15.871 2°53.65 341.7 12.6 331 10.1
2006-04-26 06:55:51 51°15.886 2°53.636 341.9 12.6 331 10.1
2006-04-26 06:55:56 51°15.902 2°53.622 342.5 12.6 332 10.3
2006-04-26 06:56:00 51°15.914 2°53.612 342.5 12.6 331 10.2
2006-04-26 06:56:07 51°15.935 2°53.593 342.4 12.6 332 10.2
2006-04-26 06:56:12 51°15.951 2°53.579 342.2 12.6 331 10.3
2006-04-26 06:56:17 51°15.966 2°53.566 341.8 12.6 331 10.4
2006-04-26 06:56:20 51°15.975 2°53.557 342.2 12.6 330 10.4
2006-04-26 06:56:27 51°15.997 2°53.539 342.2 12.5 332 10.4
2006-04-26 06:56:31 51°16.009 2°53.528 342.4 12.6 332 10.5
2006-04-26 06:56:36 51°16.024 2°53.516 342.7 12.6 332 10.5
2006-04-26 06:56:42 51°16.043 2°53.5 343 12.5 333 10.5
2006-04-26 06:56:47 51°16.059 2°53.489 343.8 12.5 334 10.5
2006-04-26 06:56:51 51°16.071 2°53.479 344.5 12.6 335 10.6
2006-04-26 06:56:56 51°16.087 2°53.467 344.9 12.6 334 10.6
2006-04-26 06:57:01 51°16.103 2°53.454 345 12.6 333 10.6
2006-04-26 06:57:07 51°16.121 2°53.439 343.9 12.6 333 10.6
2006-04-26 06:57:11 51°16.134 2°53.428 343.5 12.7 332 10.7
2006-04-26 06:57:17 51°16.152 2°53.413 342.6 12.7 332 10.8
2006-04-26 06:57:22 51°16.168 2°53.399 342.1 12.7 332 10.7
2006-04-26 06:57:27 51°16.183 2°53.386 342.2 12.7 332 10.7
2006-04-26 06:57:31 51°16.196 2°53.376 342.5 12.7 332 10.8
2006-04-26 06:57:36 51°16.212 2°53.363 342.7 12.7 333 10.8
2006-04-26 06:57:40 51°16.224 2°53.353 343.3 12.7 334 10.8
2006-04-26 06:57:46 51°16.243 2°53.339 343.9 12.6 334 10.8
2006-04-26 06:57:52 51°16.262 2°53.325 344.4 12.7 336 10.9
2006-04-26 06:57:57 51°16.278 2°53.315 345.2 12.6 337 10.9
2006-04-26 06:58:02 51°16.294 2°53.304 346.2 12.6 338 10.8
2006-04-26 06:58:07 51°16.311 2°53.293 346.3 12.5 338 10.9
2006-04-26 06:58:11 51°16.323 2°53.284 346.3 12.6 336 10.9
2006-04-26 06:58:16 51°16.339 2°53.273 345.6 12.5 336 10.9
2006-04-26 06:58:21 51°16.355 2°53.261 344.8 12.6 335 10.9
2006-04-26 06:58:27 51°16.374 2°53.247 344.1 12.5 335 10.9
2006-04-26 06:58:31 51°16.386 2°53.237 343.7 12.6 334 11
2006-04-26 06:58:36 51°16.402 2°53.225 343.2 12.5 334 10.9
2006-04-26 06:58:42 51°16.421 2°53.21 342.7 12.6 334 10.9
2006-04-26 06:58:47 51°16.437 2°53.198 342.7 12.6 335 10.9
2006-04-26 06:58:51 51°16.449 2°53.189 343 12.6 335 10.9
2006-04-26 06:58:56 51°16.465 2°53.178 343.5 12.5 335 11
2006-04-26 06:59:00 51°16.478 2°53.169 343.8 12.5 336 10.9
2006-04-26 06:59:07 51°16.5 2°53.152 344 12.5 335 10.9
2006-04-26 06:59:12 51°16.516 2°53.141 343.9 12.5 335 10.9
2006-04-26 06:59:17 51°16.532 2°53.128 343.7 12.5 335 10.9
2006-04-26 06:59:21 51°16.544 2°53.119 343.4 12.6 334 10.8
2006-04-26 06:59:27 51°16.563 2°53.104 343.2 12.5 335 10.7
2006-04-26 06:59:31 51°16.575 2°53.095 342.8 12.6 334 10.7
2006-04-26 06:59:36 51°16.591 2°53.082 342.5 12.6 334 10.7
2006-04-26 06:59:41 51°16.607 2°53.07 342.3 12.5 334 10.7
2006-04-26 06:59:46 51°16.623 2°53.059 342.3 12.5 335 10.5
2006-04-26 06:59:52 51°16.641 2°53.045 342.8 12.5 335 10.5
2006-04-26 06:59:56 51°16.654 2°53.036 343.8 12.5 336 10.5
2006-04-26 07:00:01 51°16.67 2°53.024 343.9 12.5 336 10.5
2006-04-26 07:00:07 51°16.689 2°53.011 344 12.5 335 10.4
2006-04-26 07:00:11 51°16.701 2°53.002 343.9 12.5 336 10.4
2006-04-26 07:00:17 51°16.72 2°52.988 344.2 12.4 336 10.3
2006-04-26 07:00:22 51°16.736 2°52.977 344.1 12.4 337 10.1
2006-04-26 07:00:27 51°16.752 2°52.966 344.4 12.4 336 9.9
2006-04-26 07:00:31 51°16.764 2°52.956 344.2 12.4 336 9.8
2006-04-26 07:00:37 51°16.782 2°52.943 344 12.4 335 9.5
2006-04-26 07:00:41 51°16.795 2°52.934 343.8 12.3 335 9.1
2006-04-26 07:00:46 51°16.81 2°52.922 343.2 12.2 334 8.6
2006-04-26 07:00:51 51°16.825 2°52.91 343 12.1 334 8.3
2006-04-26 07:00:56 51°16.84 2°52.899 343.2 12 335 8.2
2006-04-26 07:01:02 51°16.858 2°52.885 343.3 12 334 8.1
2006-04-26 07:01:07 51°16.873 2°52.874 343.1 12 334 8.2
2006-04-26 07:01:11 51°16.885 2°52.865 343.3 12 334 8.2
2006-04-26 07:01:16 51°16.9 2°52.853 343.3 12 334 8.2
2006-04-26 07:01:22 51°16.918 2°52.838 342.8 12.1 333 8.4
2006-04-26 07:01:27 51°16.933 2°52.826 342.1 12.2 333 8.4
2006-04-26 07:01:32 51°16.948 2°52.814 342.3 12.2 332 8.5
2006-04-26 07:01:37 51°16.964 2°52.802 341.9 12.2 334 8.6
2006-04-26 07:01:41 51°16.975 2°52.792 342 12.3 332 8.6
2006-04-26 07:01:47 51°16.994 2°52.777 342.1 12.3 334 8.7
2006-04-26 07:01:51 51°17.007 2°52.768 342.6 12.3 335 8.8
2006-04-26 07:01:56 51°17.022 2°52.757 344 12.3 336 9
2006-04-26 07:02:01 51°17.038 2°52.747 344.9 12.3 337 9.1
2006-04-26 07:02:07 51°17.057 2°52.734 346.1 12.3 338 9.2
2006-04-26 07:02:11 51°17.07 2°52.725 346.9 12.3 338 9.3
2006-04-26 07:02:17 51°17.089 2°52.713 347 12.4 337 9.3
2006-04-26 07:02:22 51°17.104 2°52.702 347.2 12.3 337 9.1
2006-04-26 07:02:27 51°17.12 2°52.691 346.8 12.2 337 8.9
2006-04-26 07:02:31 51°17.132 2°52.682 346.1 12.2 335 8.8
2006-04-26 07:02:36 51°17.147 2°52.671 345 12.1 334 8.8
2006-04-26 07:02:40 51°17.159 2°52.661 344 12.2 333 8.9
2006-04-26 07:02:46 51°17.177 2°52.646 343.3 12.2 333 9.3
2006-04-26 07:02:52 51°17.195 2°52.632 343 12.2 333 8.8
2006-04-26 07:02:57 51°17.21 2°52.62 342.9 12.2 333 8.7
2006-04-26 07:03:02 51°17.226 2°52.608 343.4 12.2 334 8.8
2006-04-26 07:03:07 51°17.241 2°52.596 343.8 12.2 334 9
2006-04-26 07:03:11 51°17.253 2°52.587 344.2 12.2 336 9
2006-04-26 07:03:16 51°17.268 2°52.576 345 12.2 336 9
2006-04-26 07:03:22 51°17.287 2°52.562 345.4 12.2 334 9.2
2006-04-26 07:03:27 51°17.302 2°52.55 345 12.2 336 9.2
2006-04-26 07:03:31 51°17.315 2°52.541 345.3 12.3 334 9.3
2006-04-26 07:03:37 51°17.333 2°52.527 345 12.3 334 9.3
2006-04-26 07:03:42 51°17.348 2°52.515 344.5 12.3 333 9.3
2006-04-26 07:03:46 51°17.36 2°52.504 343.7 12.2 333 9.3
2006-04-26 07:03:51 51°17.375 2°52.492 343 12.2 333 9.4
2006-04-26 07:03:56 51°17.39 2°52.479 342.7 12.3 333 9.5
2006-04-26 07:04:02 51°17.408 2°52.465 343 12.2 333 9.5
2006-04-26 07:04:07 51°17.424 2°52.453 343.1 12.2 333 9.4
2006-04-26 07:04:11 51°17.436 2°52.443 343.8 12.2 334 9.6
2006-04-26 07:04:17 51°17.454 2°52.43 344.3 12.1 335 9.6
2006-04-26 07:04:20 51°17.463 2°52.423 344.7 12.2 334 9.6
2006-04-26 07:04:26 51°17.481 2°52.408 344.7 12.2 334 9.5
2006-04-26 07:04:32 51°17.499 2°52.394 344.7 12.2 333 9.6
2006-04-26 07:04:36 51°17.512 2°52.385 344.2 12.2 334 9.6
2006-04-26 07:04:40 51°17.524 2°52.375 344.2 12.3 334 9.7
2006-04-26 07:04:47 51°17.546 2°52.359 344.4 12.2 336 9.6
2006-04-26 07:04:51 51°17.558 2°52.351 345 12.2 336 9.6
2006-04-26 07:04:56 51°17.574 2°52.342 346.9 12.2 340 9.6
2006-04-26 07:05:00 51°17.587 2°52.335 348.6 12.1 341 9.7
2006-04-26 07:05:06 51°17.606 2°52.325 350.1 12.1 343 9.5
2006-04-26 07:05:11 51°17.622 2°52.318 352.1 12.1 345 9.6
2006-04-26 07:05:16 51°17.638 2°52.311 353.7 12 345 9.6
2006-04-26 07:05:22 51°17.658 2°52.304 354.7 12.1 348 9.6
2006-04-26 07:05:27 51°17.674 2°52.301 356.6 11.9 350 9.5
2006-04-26 07:05:32 51°17.691 2°52.297 359.2 12 352 9.6
2006-04-26 07:05:36 51°17.704 2°52.296 1.1 11.9 354 9.6
2006-04-26 07:05:41 51°17.721 2°52.293 3.9 11.9 356 9.6
2006-04-26 07:05:47 51°17.74 2°52.293 5.1 11.9 358 9.7
2006-04-26 07:05:51 51°17.754 2°52.292 6.6 12 357 9.7
2006-04-26 07:05:56 51°17.77 2°52.291 7 11.9 358 9.6
2006-04-26 07:06:01 51°17.786 2°52.29 7.4 11.9 357 9.6
2006-04-26 07:06:07 51°17.806 2°52.289 6.7 11.9 358 9.7
2006-04-26 07:06:11 51°17.819 2°52.288 6 11.9 357 9.6
2006-04-26 07:06:16 51°17.836 2°52.286 6 11.9 356 9.7
2006-04-26 07:06:21 51°17.852 2°52.284 5.7 11.9 357 9.7
2006-04-26 07:06:27 51°17.872 2°52.283 5.7 11.9 356 9.7
2006-04-26 07:06:31 51°17.885 2°52.283 6.1 11.9 359 9.7
2006-04-26 07:06:36 51°17.901 2°52.283 7.5 11.9 -999 9.8
2006-04-26 07:06:42 51°17.921 2°52.286 10 11.7 5 9.7
2006-04-26 07:06:46 51°17.934 2°52.289 13.2 11.7 7 9.7
2006-04-26 07:06:52 51°17.953 2°52.295 15.8 11.7 11 9.7
2006-04-26 07:06:57 51°17.969 2°52.302 18.1 11.7 11 9.8
2006-04-26 07:07:00 51°17.978 2°52.305 20.9 11.8 13 9.8
2006-04-26 07:07:07 51°18 2°52.314 21.6 11.7 15 9.8
2006-04-26 07:07:11 51°18.013 2°52.318 22.4 11.7 12 9.8
2006-04-26 07:07:16 51°18.029 2°52.323 21.4 11.7 13 9.9
2006-04-26 07:07:22 51°18.048 2°52.329 20.2 11.7 10 9.9
2006-04-26 07:07:27 51°18.064 2°52.332 19.6 11.8 9 10
2006-04-26 07:07:31 51°18.077 2°52.336 17.6 11.7 9 9.9
2006-04-26 07:07:36 51°18.093 2°52.339 17.5 11.7 8 9.9
2006-04-26 07:07:42 51°18.112 2°52.343 17 11.7 7 9.9
2006-04-26 07:07:47 51°18.129 2°52.347 16.1 11.6 8 10
2006-04-26 07:07:51 51°18.142 2°52.349 16.3 11.8 6 10
2006-04-26 07:07:56 51°18.158 2°52.352 16.3 11.8 7 10.1
2006-04-26 07:08:02 51°18.177 2°52.356 16.3 11.7 8 10.1
2006-04-26 07:08:07 51°18.193 2°52.36 16.5 11.7 8 10.1
2006-04-26 07:08:11 51°18.206 2°52.363 17.3 11.8 8 10.1
2006-04-26 07:08:16 51°18.222 2°52.366 17.1 11.8 8 10.1
2006-04-26 07:08:20 51°18.235 2°52.369 17 11.8 8 10.2
2006-04-26 07:08:27 51°18.258 2°52.374 17.2 11.8 8 10.2
2006-04-26 07:08:32 51°18.274 2°52.379 17.4 11.8 9 10.2
2006-04-26 07:08:37 51°18.29 2°52.383 17.8 11.8 8 10.3
2006-04-26 07:08:41 51°18.303 2°52.386 18.1 11.9 8 10.3
2006-04-26 07:08:47 51°18.322 2°52.39 17.3 11.8 8 10.4
2006-04-26 07:08:52 51°18.339 2°52.394 17.1 11.8 8 10.4
2006-04-26 07:08:57 51°18.355 2°52.399 17.3 11.8 11 10.4
2006-04-26 07:09:02 51°18.371 2°52.403 19 11.8 10 10.4
2006-04-26 07:09:07 51°18.387 2°52.408 18.9 11.7 12 10.4
2006-04-26 07:09:12 51°18.403 2°52.414 19.7 11.7 13 10.5
2006-04-26 07:09:16 51°18.416 2°52.417 20.8 11.7 9 10.5
2006-04-26 07:09:20 51°18.428 2°52.422 19.6 11.7 13 10.5
2006-04-26 07:09:26 51°18.447 2°52.427 20.3 11.8 9 10.6
2006-04-26 07:09:32 51°18.467 2°52.434 19.7 11.8 11 10.6
2006-04-26 07:09:37 51°18.483 2°52.437 19.9 11.8 11 10.6
2006-04-26 07:09:42 51°18.499 2°52.442 18.9 11.8 10 10.7
2006-04-26 07:09:47 51°18.515 2°52.446 18.3 11.8 9 10.7
2006-04-26 07:09:51 51°18.528 2°52.449 18.1 11.7 9 10.6
2006-04-26 07:09:56 51°18.544 2°52.454 18.8 11.8 11 10.7
2006-04-26 07:10:00 51°18.557 2°52.458 18.9 11.8 11 10.8
2006-04-26 07:10:07 51°18.579 2°52.465 19.8 11.8 10 10.9
2006-04-26 07:10:11 51°18.592 2°52.468 19 11.8 10 10.8
2006-04-26 07:10:16 51°18.608 2°52.472 18.8 11.8 9 10.9
2006-04-26 07:10:22 51°18.628 2°52.478 18.6 11.7 10 10.9
2006-04-26 07:10:27 51°18.644 2°52.482 18.8 11.8 10 10.9
2006-04-26 07:10:31 51°18.656 2°52.486 18.8 11.7 12 11
2006-04-26 07:10:36 51°18.672 2°52.492 20.2 11.6 13 11.1
2006-04-26 07:10:42 51°18.691 2°52.501 21.7 11.7 15 11.1
2006-04-26 07:10:47 51°18.707 2°52.508 23.3 11.7 15 11.1
2006-04-26 07:10:52 51°18.722 2°52.515 23.7 11.6 16 11.2
2006-04-26 07:10:56 51°18.735 2°52.52 24.3 11.8 15 11.2
2006-04-26 07:11:00 51°18.747 2°52.525 23.9 11.7 16 11.2
2006-04-26 07:11:06 51°18.766 2°52.533 24 11.8 15 11.3
2006-04-26 07:11:12 51°18.785 2°52.542 23 11.8 16 11.2
2006-04-26 07:11:17 51°18.801 2°52.548 23.9 11.8 15 11.4
2006-04-26 07:11:21 51°18.814 2°52.552 23.5 11.8 12 11.4
2006-04-26 07:11:27 51°18.833 2°52.559 21.8 11.8 13 11.5
2006-04-26 07:11:32 51°18.849 2°52.566 21.7 11.8 14 11.4
2006-04-26 07:11:36 51°18.862 2°52.571 22.6 11.8 14 11.5
2006-04-26 07:11:40 51°18.874 2°52.577 23.8 11.7 16 11.6
2006-04-26 07:11:47 51°18.896 2°52.587 24 11.7 15 11.7
2006-04-26 07:11:51 51°18.909 2°52.593 24.4 11.7 16 11.6
2006-04-26 07:11:57 51°18.928 2°52.601 24.6 11.8 15 11.7
2006-04-26 07:12:02 51°18.943 2°52.608 24.7 11.8 16 11.9
2006-04-26 07:12:07 51°18.959 2°52.615 24.4 11.7 16 11.8
2006-04-26 07:12:11 51°18.972 2°52.621 24.6 11.8 16 11.8
2006-04-26 07:12:16 51°18.988 2°52.626 24.6 11.9 14 11.9
2006-04-26 07:12:22 51°19.007 2°52.633 22.5 11.9 12 12
2006-04-26 07:12:27 51°19.023 2°52.638 21.6 11.8 11 12.1
2006-04-26 07:12:32 51°19.039 2°52.644 20.8 11.7 13 12.2
2006-04-26 07:12:36 51°19.051 2°52.649 20.9 11.7 14 12.2
2006-04-26 07:12:40 51°19.064 2°52.655 23 11.7 17 12.2
2006-04-26 07:12:47 51°19.086 2°52.666 24.7 11.7 16 12.3
2006-04-26 07:12:52 51°19.101 2°52.674 25.6 11.6 19 12.3
2006-04-26 07:12:57 51°19.116 2°52.683 27.1 11.6 19 12.5
2006-04-26 07:13:01 51°19.128 2°52.69 28.3 11.6 21 12.5
2006-04-26 07:13:07 51°19.146 2°52.702 29.3 11.6 21 12.6
2006-04-26 07:13:12 51°19.161 2°52.712 29.8 11.6 23 12.6
2006-04-26 07:13:16 51°19.172 2°52.721 31.2 11.6 25 12.7
2006-04-26 07:13:20 51°19.183 2°52.73 32.6 11.4 25 12.7
2006-04-26 07:13:26 51°19.201 2°52.744 33.3 11.5 27 12.7
2006-04-26 07:13:31 51°19.215 2°52.755 34.5 11.5 26 12.8
2006-04-26 07:13:36 51°19.229 2°52.767 34.2 11.6 28 12.8
2006-04-26 07:13:40 51°19.241 2°52.776 34.7 11.6 27 12.8
2006-04-26 07:13:47 51°19.261 2°52.793 35.5 11.6 27 12.9
2006-04-26 07:13:52 51°19.275 2°52.804 34.2 11.6 24 12.9
2006-04-26 07:13:56 51°19.287 2°52.814 33.6 11.6 28 12.9
2006-04-26 07:14:02 51°19.304 2°52.827 34.2 11.6 25 13
2006-04-26 07:14:07 51°19.319 2°52.837 33.4 11.6 26 13
2006-04-26 07:14:11 51°19.331 2°52.846 32.9 11.7 24 13.1
2006-04-26 07:14:16 51°19.345 2°52.857 32.2 11.6 24 13.1
2006-04-26 07:14:22 51°19.363 2°52.87 32.2 11.6 26 13.2
2006-04-26 07:14:27 51°19.377 2°52.881 32.9 11.6 25 13.2
2006-04-26 07:14:32 51°19.392 2°52.892 33.4 11.6 25 13.3
2006-04-26 07:14:36 51°19.403 2°52.902 32.9 11.7 28 13.2
2006-04-26 07:14:42 51°19.421 2°52.915 34.6 11.7 25 13.3
2006-04-26 07:14:47 51°19.435 2°52.926 33.3 11.7 26 13.3
2006-04-26 07:14:52 51°19.45 2°52.938 33.1 11.7 26 13.5
2006-04-26 07:14:57 51°19.464 2°52.95 33.3 11.6 26 13.4
2006-04-26 07:15:01 51°19.476 2°52.958 34.2 11.6 25 13.5
2006-04-26 07:15:07 51°19.493 2°52.973 33.3 11.5 26 13.6
2006-04-26 07:15:11 51°19.504 2°52.981 33.8 11.6 25 13.5
2006-04-26 07:15:16 51°19.519 2°52.993 33.6 11.6 27 13.6
2006-04-26 07:15:20 51°19.531 2°53.001 33.3 11.6 24 13.6
2006-04-26 07:15:27 51°19.551 2°53.017 32 11.6 27 13.7
2006-04-26 07:15:32 51°19.566 2°53.027 32.6 11.6 25 13.7
2006-04-26 07:15:36 51°19.577 2°53.037 32.9 11.7 27 13.7
2006-04-26 07:15:40 51°19.589 2°53.045 33.3 11.8 24 13.7
2006-04-26 07:15:46 51°19.607 2°53.059 32.9 11.8 26 13.8
2006-04-26 07:15:52 51°19.625 2°53.072 33.2 11.8 24 13.9
2006-04-26 07:15:57 51°19.639 2°53.083 32.5 11.8 24 13.9
2006-04-26 07:16:01 51°19.651 2°53.092 32.5 11.7 24 14
2006-04-26 07:16:07 51°19.668 2°53.106 32.4 11.7 26 13.9
2006-04-26 07:16:11 51°19.68 2°53.115 33.1 11.7 25 14
2006-04-26 07:16:16 51°19.694 2°53.127 34.2 11.7 28 14
2006-04-26 07:16:20 51°19.706 2°53.136 34.2 11.7 24 14.1
2006-04-26 07:16:27 51°19.727 2°53.151 32.6 11.8 25 14.1
2006-04-26 07:16:31 51°19.739 2°53.16 32.4 11.7 25 14.2
2006-04-26 07:16:36 51°19.754 2°53.171 31.8 11.9 24 14.3
2006-04-26 07:16:42 51°19.772 2°53.184 31.2 11.9 25 14.3
2006-04-26 07:16:47 51°19.787 2°53.194 32.3 11.9 22 14.3
2006-04-26 07:16:52 51°19.802 2°53.204 30.8 11.8 24 14.4
2006-04-26 07:16:56 51°19.814 2°53.213 30.7 11.8 23 14.4
2006-04-26 07:17:02 51°19.832 2°53.225 30.8 11.9 24 14.4
2006-04-26 07:17:07 51°19.847 2°53.236 31.2 11.9 24 14.5
2006-04-26 07:17:11 51°19.859 2°53.244 31.7 11.8 23 14.5
2006-04-26 07:17:15 51°19.871 2°53.252 31.6 11.8 23 14.5
2006-04-26 07:17:22 51°19.892 2°53.268 31.2 11.8 25 14.6
2006-04-26 07:17:27 51°19.907 2°53.279 31.8 11.8 25 14.8
2006-04-26 07:17:31 51°19.919 2°53.287 32 11.8 24 14.7
2006-04-26 07:17:36 51°19.935 2°53.298 31.6 11.9 24 14.8
2006-04-26 07:17:41 51°19.949 2°53.309 31.6 11.8 25 14.8
2006-04-26 07:17:47 51°19.967 2°53.321 31.9 11.8 22 14.8
2006-04-26 07:17:52 51°19.982 2°53.331 31.2 11.7 24 14.9
2006-04-26 07:17:57 51°19.997 2°53.343 31.1 11.7 23 14.9
2006-04-26 07:18:00 51°20.006 2°53.349 31.7 11.7 25 15
2006-04-26 07:18:07 51°20.026 2°53.364 31.3 11.7 25 15
2006-04-26 07:18:11 51°20.038 2°53.372 32.3 11.7 25 15
2006-04-26 07:18:16 51°20.053 2°53.383 32.5 11.7 26 15
2006-04-26 07:18:21 51°20.067 2°53.395 32.8 11.7 26 15.1
2006-04-26 07:18:24 51°20.076 2°53.402 34.2 11.7 27 15.1
2006-04-26 07:18:31 51°20.097 2°53.418 34.5 11.8 28 15.2
2006-04-26 07:18:36 51°20.111 2°53.43 33.8 11.6 26 15.2
2006-04-26 07:18:41 51°20.125 2°53.442 34.2 11.5 28 15.2
2006-04-26 07:18:47 51°20.143 2°53.455 33.5 11.7 26 15.3
2006-04-26 07:18:51 51°20.154 2°53.464 33.7 11.7 27 15.3
2006-04-26 07:18:56 51°20.169 2°53.475 33.7 11.7 25 15.3
2006-04-26 07:19:01 51°20.184 2°53.486 32.6 11.8 24 15.3
2006-04-26 07:19:06 51°20.199 2°53.497 32.3 11.9 25 15.3
2006-04-26 07:19:12 51°20.217 2°53.509 31.9 11.9 23 15.3
2006-04-26 07:19:16 51°20.229 2°53.518 31.9 11.8 25 15.4
2006-04-26 07:19:21 51°20.244 2°53.529 32.1 11.8 23 15.4
2006-04-26 07:19:26 51°20.259 2°53.541 32.1 11.8 27 15.4
2006-04-26 07:19:31 51°20.274 2°53.551 33.2 11.9 25 15.4
2006-04-26 07:19:36 51°20.289 2°53.562 33 11.8 24 15.4
2006-04-26 07:19:40 51°20.301 2°53.571 32.4 11.8 25 15.5
2006-04-26 07:19:47 51°20.322 2°53.586 32.4 11.8 25 15.5
2006-04-26 07:19:51 51°20.334 2°53.594 31.9 11.8 23 15.4
2006-04-26 07:19:56 51°20.349 2°53.604 31.5 11.7 24 15.5
2006-04-26 07:20:00 51°20.36 2°53.613 31.3 11.7 25 15.4
2006-04-26 07:20:07 51°20.381 2°53.629 32.2 11.7 26 15.5
2006-04-26 07:20:11 51°20.392 2°53.638 33.1 11.8 26 15.6
2006-04-26 07:20:15 51°20.404 2°53.648 33.8 11.8 27 15.6
2006-04-26 07:20:21 51°20.422 2°53.661 33.8 11.8 24 15.5
2006-04-26 07:20:26 51°20.436 2°53.673 33.1 11.8 28 15.6
2006-04-26 07:20:31 51°20.452 2°53.682 32.6 11.8 22 15.6
2006-04-26 07:20:36 51°20.466 2°53.695 32.4 11.6 28 15.6
2006-04-26 07:20:41 51°20.48 2°53.706 33 11.6 25 15.7
2006-04-26 07:20:44 51°20.489 2°53.713 33.7 11.6 28 15.6
2006-04-26 07:20:52 51°20.512 2°53.731 33.5 11.7 25 15.6
2006-04-26 07:20:56 51°20.523 2°53.741 34.1 11.7 29 15.6
2006-04-26 07:21:01 51°20.539 2°53.752 33.7 11.8 24 15.6
2006-04-26 07:21:06 51°20.553 2°53.764 33.6 11.7 27 15.7
2006-04-26 07:21:10 51°20.565 2°53.772 33.2 11.7 26 15.7
2006-04-26 07:21:15 51°20.579 2°53.784 33.6 11.7 27 15.7
2006-04-26 07:21:20 51°20.594 2°53.795 33.1 11.7 25 15.7
2006-04-26 07:21:26 51°20.612 2°53.808 32.6 11.7 25 15.7
2006-04-26 07:21:30 51°20.623 2°53.817 32.2 11.8 25 15.7
2006-04-26 07:21:36 51°20.641 2°53.83 32.1 11.8 24 15.7
2006-04-26 07:21:39 51°20.65 2°53.837 32.3 11.9 25 15.7
2006-04-26 07:21:46 51°20.671 2°53.852 31.9 11.9 24 15.8
2006-04-26 07:21:51 51°20.686 2°53.863 32 11.8 25 15.8
2006-04-26 07:21:56 51°20.701 2°53.874 32 11.8 24 15.8
2006-04-26 07:22:00 51°20.713 2°53.883 31.9 11.8 25 15.7
2006-04-26 07:22:07 51°20.734 2°53.899 32.2 11.8 26 15.8
2006-04-26 07:22:12 51°20.749 2°53.91 32.1 11.8 24 15.8
2006-04-26 07:22:17 51°20.764 2°53.921 32.5 11.9 26 15.8
2006-04-26 07:22:20 51°20.772 2°53.928 32.3 11.8 25 15.8
2006-04-26 07:22:27 51°20.793 2°53.943 32.6 11.8 26 15.9
2006-04-26 07:22:31 51°20.805 2°53.952 32.3 11.9 24 15.8
2006-04-26 07:22:36 51°20.82 2°53.964 31.9 11.9 26 15.8
2006-04-26 07:22:41 51°20.835 2°53.974 32.5 11.8 23 15.9
2006-04-26 07:22:44 51°20.844 2°53.981 31.3 11.7 24 15.9
2006-04-26 07:22:52 51°20.868 2°53.997 30.9 11.8 24 15.9
2006-04-26 07:22:56 51°20.88 2°54.006 30.8 11.8 24 16
2006-04-26 07:23:01 51°20.895 2°54.018 31.2 11.8 26 16
2006-04-26 07:23:06 51°20.909 2°54.029 32.3 11.8 26 16
2006-04-26 07:23:11 51°20.924 2°54.04 32.7 11.8 27 16
2006-04-26 07:23:16 51°20.939 2°54.052 32.8 11.9 27 15.9
2006-04-26 07:23:21 51°20.953 2°54.065 33.3 11.7 28 15.9
2006-04-26 07:23:26 51°20.968 2°54.076 34.1 11.8 27 16
2006-04-26 07:23:31 51°20.982 2°54.087 33.6 11.8 26 16
2006-04-26 07:23:36 51°20.997 2°54.099 32.4 11.9 26 16
2006-04-26 07:23:42 51°21.015 2°54.112 32.8 11.9 23 15.8
2006-04-26 07:23:47 51°21.03 2°54.123 31.3 11.9 24 16
2006-04-26 07:23:51 51°21.042 2°54.132 31.5 11.8 25 16
2006-04-26 07:23:56 51°21.057 2°54.141 31.6 11.8 22 16
2006-04-26 07:24:02 51°21.075 2°54.155 30.5 11.8 22 16.1
2006-04-26 07:24:07 51°21.09 2°54.166 32.1 11.8 25 16.1
2006-04-26 07:24:11 51°21.102 2°54.176 32.6 11.8 26 16.2
2006-04-26 07:24:16 51°21.116 2°54.187 32.6 11.8 26 16.1
2006-04-26 07:24:20 51°21.128 2°54.196 32.9 11.9 24 16.1
2006-04-26 07:24:27 51°21.148 2°54.212 32.1 11.7 26 16
2006-04-26 07:24:32 51°21.163 2°54.223 33 11.7 26 16.1
2006-04-26 07:24:37 51°21.178 2°54.234 32.6 11.7 24 16.1
2006-04-26 07:24:40 51°21.187 2°54.24 32.6 11.6 24 16.2
2006-04-26 07:24:47 51°21.207 2°54.255 31.8 11.6 25 16.2
2006-04-26 07:24:52 51°21.222 2°54.266 32.1 11.7 25 16.2
2006-04-26 07:24:57 51°21.237 2°54.277 32.1 11.7 25 16.2
2006-04-26 07:25:01 51°21.249 2°54.285 32 11.7 22 16.2
2006-04-26 07:25:06 51°21.264 2°54.296 30.9 11.7 24 16.3
2006-04-26 07:25:11 51°21.279 2°54.306 30.9 11.7 23 16.3
2006-04-26 07:25:16 51°21.293 2°54.317 31 11.7 25 16.2
2006-04-26 07:25:20 51°21.305 2°54.325 31.7 11.8 24 16.3
2006-04-26 07:25:26 51°21.323 2°54.339 31.7 11.7 26 16.3
2006-04-26 07:25:31 51°21.338 2°54.35 32.6 11.7 24 16.3
2006-04-26 07:25:36 51°21.352 2°54.36 32.1 11.7 25 16.3
2006-04-26 07:25:41 51°21.367 2°54.372 32.5 11.8 25 16.3
2006-04-26 07:25:44 51°21.376 2°54.378 32.6 11.8 24 16.3
2006-04-26 07:25:51 51°21.397 2°54.393 32.1 11.7 24 16.3
2006-04-26 07:25:56 51°21.412 2°54.404 31.6 11.7 24 16.3
2006-04-26 07:26:00 51°21.423 2°54.413 31 11.7 25 16.4
2006-04-26 07:26:06 51°21.441 2°54.425 31.1 11.7 23 16.3
2006-04-26 07:26:12 51°21.459 2°54.438 31.7 11.7 26 16.3
2006-04-26 07:26:16 51°21.471 2°54.446 32.2 11.7 24 16.4
2006-04-26 07:26:20 51°21.483 2°54.455 31 11.6 24 16.5
2006-04-26 07:26:26 51°21.501 2°54.466 30.5 11.7 22 16.5
2006-04-26 07:26:31 51°21.516 2°54.475 29.8 11.6 21 16.5
2006-04-26 07:26:36 51°21.531 2°54.484 29 11.7 21 16.4
2006-04-26 07:26:40 51°21.543 2°54.492 28.7 11.6 22 16.5
2006-04-26 07:26:47 51°21.564 2°54.505 28.2 11.7 21 16.5
2006-04-26 07:26:51 51°21.576 2°54.512 28.4 11.7 21 16.5
2006-04-26 07:26:56 51°21.592 2°54.521 28.5 11.7 20 16.5
2006-04-26 07:27:01 51°21.607 2°54.53 28.1 11.7 19 16.5
2006-04-26 07:27:06 51°21.623 2°54.537 27.1 11.8 18 16.5
2006-04-26 07:27:11 51°21.638 2°54.545 26.6 11.8 17 16.5
2006-04-26 07:27:16 51°21.653 2°54.552 25.5 11.7 16 16.5
2006-04-26 07:27:21 51°21.669 2°54.56 24.6 11.7 17 16.6
2006-04-26 07:27:24 51°21.679 2°54.563 24.1 11.8 13 16.6
2006-04-26 07:27:31 51°21.701 2°54.574 23.6 11.8 17 16.6
2006-04-26 07:27:36 51°21.717 2°54.58 24.3 11.9 15 16.6
2006-04-26 07:27:42 51°21.735 2°54.59 23.9 11.8 17 16.7
2006-04-26 07:27:46 51°21.748 2°54.595 24.2 11.9 15 16.7
2006-04-26 07:27:51 51°21.764 2°54.603 24 11.9 17 16.7
2006-04-26 07:27:57 51°21.783 2°54.612 24.6 11.9 17 16.7
2006-04-26 07:28:01 51°21.796 2°54.618 24.3 12 16 16.7
2006-04-26 07:28:06 51°21.812 2°54.625 24.4 11.9 15 16.8
2006-04-26 07:28:12 51°21.831 2°54.632 23.7 11.9 14 16.8
2006-04-26 07:28:17 51°21.847 2°54.639 22.5 11.9 14 16.9
2006-04-26 07:28:20 51°21.857 2°54.643 23 11.8 15 16.9
2006-04-26 07:28:26 51°21.876 2°54.651 23.2 11.9 15 17
2006-04-26 07:28:32 51°21.895 2°54.66 23.1 11.8 17 16.8
2006-04-26 07:28:36 51°21.907 2°54.666 23.9 11.8 15 16.8
2006-04-26 07:28:42 51°21.926 2°54.676 24.2 11.8 19 16.9
2006-04-26 07:28:47 51°21.942 2°54.684 25.1 11.9 16 16.8
2006-04-26 07:28:51 51°21.955 2°54.69 24.8 11.9 17 17
2006-04-26 07:28:56 51°21.971 2°54.697 23.9 11.9 15 17.1
2006-04-26 07:29:01 51°21.987 2°54.704 23.2 11.9 15 17.3
2006-04-26 07:29:07 51°22.006 2°54.711 23.2 12 13 17.5
2006-04-26 07:29:11 51°22.019 2°54.717 22 12 14 17.8
2006-04-26 07:29:16 51°22.035 2°54.722 22 12 13 18
2006-04-26 07:29:21 51°22.052 2°54.729 21.2 12 12 18
2006-04-26 07:29:26 51°22.068 2°54.734 22.2 12.1 12 18.2
2006-04-26 07:29:32 51°22.088 2°54.741 21 12.1 12 18.2
2006-04-26 07:29:36 51°22.101 2°54.745 20.4 12 13 18.3
2006-04-26 07:29:41 51°22.117 2°54.751 21 12 12 18.3
2006-04-26 07:29:46 51°22.133 2°54.757 20.5 12 12 18.2
2006-04-26 07:29:51 51°22.149 2°54.763 21 11.9 13 18.3
2006-04-26 07:29:56 51°22.165 2°54.769 21.2 12 14 18.2
2006-04-26 07:30:02 51°22.185 2°54.775 21.8 12 13 18.2
2006-04-26 07:30:06 51°22.198 2°54.78 20.7 12.1 12 18.1
2006-04-26 07:30:11 51°22.215 2°54.785 20.3 12.2 11 18.1
2006-04-26 07:30:17 51°22.235 2°54.79 19.5 12.1 11 18.1
2006-04-26 07:30:20 51°22.244 2°54.793 18.5 12.1 9 18.2
2006-04-26 07:30:27 51°22.268 2°54.8 18.8 12 11 18.1
2006-04-26 07:30:32 51°22.284 2°54.805 19 12.1 10 18
2006-04-26 07:30:36 51°22.297 2°54.81 19.2 12 13 18.1
2006-04-26 07:30:42 51°22.317 2°54.815 19.8 12.1 9 18.1
2006-04-26 07:30:46 51°22.33 2°54.82 19.2 12 13 18.1
2006-04-26 07:30:52 51°22.35 2°54.826 19.7 12 9 17.9
2006-04-26 07:30:56 51°22.363 2°54.83 19.1 12.1 11 17.8
2006-04-26 07:31:02 51°22.383 2°54.835 18.8 12.1 10 17.6
2006-04-26 07:31:07 51°22.399 2°54.84 18.1 12.1 11 17.5
2006-04-26 07:31:12 51°22.416 2°54.844 18.8 12.1 9 17.5
2006-04-26 07:31:16 51°22.429 2°54.848 18 12.1 10 17.6
2006-04-26 07:31:21 51°22.445 2°54.852 17.4 12.1 9 17.7
2006-04-26 07:31:26 51°22.461 2°54.857 17.3 12 10 17.9
2006-04-26 07:31:31 51°22.478 2°54.862 18.1 12 11 18
2006-04-26 07:31:36 51°22.494 2°54.866 18.8 12.1 10 18.2
2006-04-26 07:31:41 51°22.511 2°54.873 18.8 12.3 14 18.3
2006-04-26 07:31:46 51°22.527 2°54.877 18.7 12 9 18.3
2006-04-26 07:31:52 51°22.547 2°54.884 19 12 12 18.4
2006-04-26 07:31:57 51°22.564 2°54.889 19.5 12.1 11 18.4
2006-04-26 07:32:02 51°22.58 2°54.894 19.3 12 12 18.6
2006-04-26 07:32:06 51°22.593 2°54.899 19.5 12 13 18.7
2006-04-26 07:32:11 51°22.609 2°54.905 19.5 12 12 18.7
2006-04-26 07:32:17 51°22.629 2°54.911 19.8 12 12 18.9
2006-04-26 07:32:20 51°22.638 2°54.915 19.6 12 13 19
2006-04-26 07:32:26 51°22.658 2°54.921 19.9 12 11 19.2
2006-04-26 07:32:31 51°22.674 2°54.927 19.1 12 11 19.2
2006-04-26 07:32:36 51°22.69 2°54.932 18.7 12 11 19.2
2006-04-26 07:32:41 51°22.707 2°54.937 17.5 12 11 19.2
2006-04-26 07:32:47 51°22.727 2°54.942 18.4 11.9 10 19.3
2006-04-26 07:32:51 51°22.74 2°54.946 17.4 11.9 10 19.3
2006-04-26 07:32:56 51°22.756 2°54.951 17.6 11.9 11 19.2
2006-04-26 07:33:02 51°22.775 2°54.957 18.6 11.9 10 19.1
2006-04-26 07:33:07 51°22.791 2°54.963 18.1 11.9 13 18.9
2006-04-26 07:33:11 51°22.804 2°54.967 19.3 11.9 12 18.9
2006-04-26 07:33:16 51°22.82 2°54.974 19.9 11.8 15 18.9
2006-04-26 07:33:22 51°22.839 2°54.981 20.6 11.9 14 18.9
2006-04-26 07:33:26 51°22.852 2°54.987 20.4 11.9 14 18.9
2006-04-26 07:33:31 51°22.868 2°54.993 21.3 12 14 18.9
2006-04-26 07:33:36 51°22.884 2°55 21 12 14 18.9
2006-04-26 07:33:40 51°22.898 2°55.004 20.4 12 14 18.9
2006-04-26 07:33:47 51°22.92 2°55.012 19.3 12 13 18.8
2006-04-26 07:33:51 51°22.933 2°55.016 19.1 12.1 11 18.6
2006-04-26 07:33:56 51°22.95 2°55.021 18.5 11.9 11 18.8
2006-04-26 07:34:01 51°22.966 2°55.026 18.1 11.9 12 19
2006-04-26 07:34:06 51°22.982 2°55.032 18.5 12 12 18.6
2006-04-26 07:34:11 51°22.998 2°55.037 18.8 12 11 18.9
2006-04-26 07:34:16 51°23.015 2°55.042 17.7 11.9 9 19
2006-04-26 07:34:21 51°23.031 2°55.049 17.9 11.9 14 19
2006-04-26 07:34:26 51°23.047 2°55.053 18.7 11.9 12 19.1
2006-04-26 07:34:32 51°23.066 2°55.061 19.1 11.9 15 18.9
2006-04-26 07:34:36 51°23.079 2°55.066 19.5 11.9 13 18.7
2006-04-26 07:34:41 51°23.095 2°55.073 19.9 11.8 14 18.8
2006-04-26 07:34:46 51°23.111 2°55.079 20.5 11.8 15 19
2006-04-26 07:34:52 51°23.13 2°55.087 20.6 11.8 16 18.9
2006-04-26 07:34:57 51°23.145 2°55.094 21.1 11.8 13 18.9
2006-04-26 07:35:00 51°23.155 2°55.098 20.6 11.8 14 18.8
2006-04-26 07:35:07 51°23.177 2°55.107 20 11.8 15 18.8
2006-04-26 07:35:11 51°23.19 2°55.113 20.2 11.9 15 18.6
2006-04-26 07:35:16 51°23.206 2°55.119 20.9 11.8 14 18.5
2006-04-26 07:35:22 51°23.225 2°55.126 20.5 11.8 15 18.6
2006-04-26 07:35:27 51°23.24 2°55.132 19.8 11.9 13 18.6
2006-04-26 07:35:31 51°23.253 2°55.137 19.8 11.9 13 18
2006-04-26 07:35:36 51°23.269 2°55.142 18.8 11.9 12 16.9
2006-04-26 07:35:41 51°23.286 2°55.147 17.9 11.8 10 19
2006-04-26 07:35:47 51°23.305 2°55.152 17 11.8 11 18.6
2006-04-26 07:35:52 51°23.321 2°55.157 16 11.8 9 18
2006-04-26 07:35:57 51°23.338 2°55.161 16.4 11.9 11 15.5
2006-04-26 07:36:00 51°23.348 2°55.163 15.9 11.8 9 18.7
2006-04-26 07:36:07 51°23.37 2°55.168 15.3 11.8 8 18.8
2006-04-26 07:36:11 51°23.383 2°55.172 14.9 11.9 10 18
2006-04-26 07:36:16 51°23.399 2°55.176 15.9 11.9 9 17.4
2006-04-26 07:36:21 51°23.416 2°55.181 15.8 11.9 10 14.4
2006-04-26 07:36:26 51°23.432 2°55.185 15.9 11.8 10 17.6
2006-04-26 07:36:31 51°23.448 2°55.19 15.8 11.8 9 18.7
2006-04-26 07:36:36 51°23.464 2°55.194 15.9 11.8 11 18.5
2006-04-26 07:36:41 51°23.481 2°55.198 16.3 11.7 9 17.4
2006-04-26 07:36:46 51°23.496 2°55.203 16.2 11.6 10 15.5
2006-04-26 07:36:51 51°23.512 2°55.207 16.5 11.6 10 17.8
2006-04-26 07:36:57 51°23.531 2°55.213 16.9 11.6 10 18.6
2006-04-26 07:37:02 51°23.547 2°55.218 16.4 11.7 10 18.4
2006-04-26 07:37:06 51°23.56 2°55.222 17 11.7 11 17.4
2006-04-26 07:37:11 51°23.576 2°55.226 16.7 11.8 9 17.8
2006-04-26 07:37:16 51°23.592 2°55.23 16.4 11.7 10 17.5
2006-04-26 07:37:21 51°23.609 2°55.234 16.1 11.8 9 17.6
2006-04-26 07:37:27 51°23.628 2°55.239 16 11.7 9 19.1
2006-04-26 07:37:32 51°23.643 2°55.243 16.1 11.7 8 19.3
2006-04-26 07:37:36 51°23.656 2°55.245 15.7 11.6 8 18.9
2006-04-26 07:37:41 51°23.672 2°55.249 15.1 11.6 7 18.1
2006-04-26 07:37:46 51°23.688 2°55.253 15.2 11.6 9 16.7
2006-04-26 07:37:51 51°23.704 2°55.258 16.5 11.5 10 18.1
2006-04-26 07:37:56 51°23.72 2°55.261 17.1 11.5 9 19.6
2006-04-26 07:38:01 51°23.735 2°55.266 17.6 11.6 11 19.2
2006-04-26 07:38:07 51°23.754 2°55.271 17.4 11.7 8 18.9
2006-04-26 07:38:12 51°23.77 2°55.276 17.2 11.6 11 19.9
2006-04-26 07:38:17 51°23.786 2°55.281 17.5 11.6 10 19.6
2006-04-26 07:38:21 51°23.799 2°55.284 17.7 11.5 9 19.4
2006-04-26 07:38:27 51°23.817 2°55.29 16.7 11.4 9 18.7
2006-04-26 07:38:32 51°23.833 2°55.293 16.7 11.5 9 19.9
2006-04-26 07:38:37 51°23.849 2°55.298 17 11.5 12 19.8
2006-04-26 07:38:39 51°23.855 2°55.299 18 11.5 8 19.2
2006-04-26 07:38:46 51°23.877 2°55.306 18 11.3 13 20
2006-04-26 07:38:51 51°23.892 2°55.311 17.4 11.4 10 20.1
2006-04-26 07:38:56 51°23.908 2°55.316 18.3 11.4 12 20.4
2006-04-26 07:39:00 51°23.92 2°55.32 18.6 11.5 12 20.4
2006-04-26 07:39:06 51°23.939 2°55.325 18.6 11.6 9 20.4
2006-04-26 07:39:12 51°23.959 2°55.33 17.4 11.6 10 20.5
2006-04-26 07:39:17 51°23.975 2°55.334 16.6 11.6 8 20.7
2006-04-26 07:39:20 51°23.984 2°55.336 16.6 11.6 9 20.8
2006-04-26 07:39:27 51°24.006 2°55.343 16.6 11.6 10 20.7
2006-04-26 07:39:31 51°24.019 2°55.347 17.4 11.7 11 20.8
2006-04-26 07:39:36 51°24.035 2°55.351 18.3 11.8 10 20.6
2006-04-26 07:39:42 51°24.055 2°55.356 18.1 11.8 9 20.9
2006-04-26 07:39:47 51°24.071 2°55.359 17 11.8 7 21
2006-04-26 07:39:51 51°24.084 2°55.363 15.6 11.7 8 21.1
2006-04-26 07:39:56 51°24.1 2°55.365 15.3 11.7 5 20.9
2006-04-26 07:40:00 51°24.113 2°55.368 14.9 11.5 8 20.6
2006-04-26 07:40:04 51°24.126 2°55.371 15.7 11.5 9 20.5
2006-04-26 07:40:11 51°24.147 2°55.377 16.5 11.5 10 20.2
2006-04-26 07:40:16 51°24.163 2°55.382 18.1 11.6 13 20.9
2006-04-26 07:40:21 51°24.178 2°55.388 19.5 11.7 11 21
2006-04-26 07:40:26 51°24.194 2°55.392 19.5 11.7 12 20.8
2006-04-26 07:40:31 51°24.21 2°55.397 19.1 11.7 10 21.1
2006-04-26 07:40:36 51°24.226 2°55.401 18.2 11.7 10 21.4
2006-04-26 07:40:41 51°24.242 2°55.406 17.1 11.6 9 21.5
2006-04-26 07:40:47 51°24.261 2°55.411 16.7 11.6 10 21.6
2006-04-26 07:40:52 51°24.277 2°55.416 17.3 11.7 12 21.9
2006-04-26 07:40:57 51°24.293 2°55.421 18.3 11.8 11 22.4
2006-04-26 07:41:01 51°24.306 2°55.425 18.5 11.8 10 22.1
2006-04-26 07:41:06 51°24.322 2°55.428 17.9 11.8 8 22.3
2006-04-26 07:41:11 51°24.338 2°55.433 16 11.7 10 22.3
2006-04-26 07:41:16 51°24.355 2°55.437 16.2 11.9 10 22.6
2006-04-26 07:41:22 51°24.374 2°55.443 17.4 11.9 10 22.8
2006-04-26 07:41:26 51°24.387 2°55.446 16.8 11.8 8 22.9
2006-04-26 07:41:31 51°24.403 2°55.45 15.8 11.8 9 23.1
2006-04-26 07:41:36 51°24.419 2°55.453 15.4 11.8 8 23.2
2006-04-26 07:41:42 51°24.438 2°55.459 15.7 11.8 11 23.3
2006-04-26 07:41:47 51°24.455 2°55.464 17.3 11.8 11 23.4
2006-04-26 07:41:52 51°24.471 2°55.468 17.6 11.9 10 23.4
2006-04-26 07:41:56 51°24.484 2°55.472 17.1 11.9 10 23.6
2006-04-26 07:42:01 51°24.501 2°55.476 17.1 11.9 9 23.6
2006-04-26 07:42:04 51°24.51 2°55.479 16.3 11.9 11 23.7
2006-04-26 07:42:11 51°24.533 2°55.485 17.4 11.9 11 23.7
2006-04-26 07:42:16 51°24.549 2°55.49 17.1 12 11 23.6
2006-04-26 07:42:22 51°24.569 2°55.496 17.1 12 11 23.6
2006-04-26 07:42:27 51°24.586 2°55.502 17.6 12.1 12 23.6
2006-04-26 07:42:31 51°24.599 2°55.505 17.6 12.1 9 23.6
2006-04-26 07:42:36 51°24.615 2°55.51 16.8 12.1 11 23.5
2006-04-26 07:42:40 51°24.629 2°55.514 16.7 12.1 11 23.5
2006-04-26 07:42:47 51°24.652 2°55.52 17 12 10 23.4
2006-04-26 07:42:52 51°24.668 2°55.525 16.8 12 11 23.4
2006-04-26 07:42:56 51°24.681 2°55.529 16.6 11.9 9 23.4
2006-04-26 07:43:02 51°24.7 2°55.536 16.6 11.9 10 23.2
2006-04-26 07:43:06 51°24.713 2°55.54 18.1 12 12 23.1
2006-04-26 07:43:11 51°24.73 2°55.547 18.7 12.1 13 23
2006-04-26 07:43:16 51°24.746 2°55.552 19.1 12.2 13 22.8
2006-04-26 07:43:19 51°24.756 2°55.556 19 12.2 14 22.8
2006-04-26 07:43:26 51°24.779 2°55.565 19.2 12.2 12 22.7
2006-04-26 07:43:32 51°24.799 2°55.571 18.6 12.2 12 22.7
2006-04-26 07:43:37 51°24.816 2°55.577 17.2 12.1 12 22.8
2006-04-26 07:43:42 51°24.832 2°55.581 17.3 12.2 11 22.8
2006-04-26 07:43:46 51°24.846 2°55.586 16.8 12.2 13 23
2006-04-26 07:43:51 51°24.862 2°55.592 17.4 12.2 12 23
2006-04-26 07:43:56 51°24.879 2°55.597 17.7 12.2 12 22.9
2006-04-26 07:44:01 51°24.895 2°55.603 16.8 12.3 12 23.1
2006-04-26 07:44:07 51°24.915 2°55.609 17.3 12.3 11 22.9
2006-04-26 07:44:11 51°24.929 2°55.614 16.8 12.3 11 22.8
2006-04-26 07:44:17 51°24.949 2°55.62 17.2 12.3 11 22.6
2006-04-26 07:44:22 51°24.966 2°55.626 17 12.3 13 22.4
2006-04-26 07:44:27 51°24.982 2°55.631 17.5 12.3 11 22.3
2006-04-26 07:44:31 51°24.995 2°55.636 17.6 12.3 13 22.2
2006-04-26 07:44:36 51°25.012 2°55.642 18 12.2 13 21.8
2006-04-26 07:44:41 51°25.029 2°55.648 18.1 12.3 13 21.5
2006-04-26 07:44:46 51°25.045 2°55.655 18.3 12.2 15 21.1
2006-04-26 07:44:52 51°25.065 2°55.662 18.8 12.3 13 20.8
2006-04-26 07:44:56 51°25.078 2°55.668 18.4 12.3 14 20.9
2006-04-26 07:45:02 51°25.098 2°55.674 18.8 12.3 11 20.5
2006-04-26 07:45:07 51°25.115 2°55.68 17.5 12.3 12 20.4
2006-04-26 07:45:11 51°25.129 2°55.683 17 12.3 8 20.1
2006-04-26 07:45:16 51°25.145 2°55.688 15.2 12.1 10 19.6
2006-04-26 07:45:20 51°25.158 2°55.692 15.9 12.1 12 19.3
2006-04-26 07:45:26 51°25.178 2°55.698 15.8 12 11 19
2006-04-26 07:45:31 51°25.194 2°55.703 18.1 12 11 18.6
2006-04-26 07:45:36 51°25.21 2°55.709 17 12 11 18.5
2006-04-26 07:45:41 51°25.227 2°55.714 17.9 12.1 13 18.3
2006-04-26 07:45:47 51°25.246 2°55.722 16.7 12 11 17.9
2006-04-26 07:45:51 51°25.259 2°55.725 17.6 12 10 17.5
2006-04-26 07:45:57 51°25.279 2°55.732 16.9 11.9 11 16.9
2006-04-26 07:46:01 51°25.292 2°55.735 17.4 11.9 10 15.7
2006-04-26 07:46:06 51°25.308 2°55.741 16.9 11.9 12 16.3
2006-04-26 07:46:11 51°25.324 2°55.746 16.9 11.8 12 16.6
2006-04-26 07:46:17 51°25.343 2°55.752 17.1 11.8 12 16.3
2006-04-26 07:46:21 51°25.356 2°55.757 16.9 11.8 12 16.2
2006-04-26 07:46:24 51°25.365 2°55.76 17.4 11.8 12 16.2
2006-04-26 07:46:31 51°25.387 2°55.768 16.7 11.9 14 16
2006-04-26 07:46:36 51°25.404 2°55.773 18.3 11.9 12 15.7
2006-04-26 07:46:41 51°25.42 2°55.779 17.7 11.8 12 15.2
2006-04-26 07:46:47 51°25.439 2°55.784 16.9 11.9 10 13.5
2006-04-26 07:46:51 51°25.452 2°55.786 15.4 11.7 7 15.3
2006-04-26 07:46:56 51°25.468 2°55.791 14.7 11.7 10 15.9
2006-04-26 07:47:01 51°25.485 2°55.793 14.2 11.9 5 16.3
2006-04-26 07:47:06 51°25.501 2°55.798 13.4 11.9 9 16.1
2006-04-26 07:47:11 51°25.517 2°55.802 13.2 11.9 7 16.3
2006-04-26 07:47:16 51°25.533 2°55.805 13.5 11.8 8 16.2
2006-04-26 07:47:21 51°25.55 2°55.808 13.9 11.8 7 16.4
2006-04-26 07:47:26 51°25.566 2°55.813 13.2 11.9 10 16.4
2006-04-26 07:47:30 51°25.579 2°55.815 14.3 12 4 16.5
2006-04-26 07:47:36 51°25.598 2°55.82 12.5 11.9 9 16.5
2006-04-26 07:47:39 51°25.609 2°55.821 13 11.9 4 16.6
2006-04-26 07:47:46 51°25.632 2°55.825 12.6 12 8 16.7
2006-04-26 07:47:52 51°25.652 2°55.827 12.1 12 5 17
2006-04-26 07:47:57 51°25.669 2°55.829 11.3 12 5 16.9
2006-04-26 07:48:00 51°25.678 2°55.831 10.8 12 4 16.3
2006-04-26 07:48:07 51°25.701 2°55.833 11 11.9 4 13.8
2006-04-26 07:48:11 51°25.714 2°55.836 11.2 11.8 4 14.4
2006-04-26 07:48:16 51°25.73 2°55.839 11.9 11.6 7 15.9
2006-04-26 07:48:20 51°25.743 2°55.841 13.1 11.7 7 16.6
2006-04-26 07:48:27 51°25.766 2°55.846 14.2 11.9 8 17
2006-04-26 07:48:32 51°25.782 2°55.85 13.9 11.8 7 17.3
2006-04-26 07:48:36 51°25.795 2°55.852 14.6 11.7 8 17.6
2006-04-26 07:48:42 51°25.814 2°55.856 14 11.7 7 17.8
2006-04-26 07:48:46 51°25.827 2°55.859 13.4 11.7 7 17.9
2006-04-26 07:48:51 51°25.843 2°55.862 13.7 11.7 7 17.6
2006-04-26 07:48:56 51°25.859 2°55.865 12.8 11.8 7 18.2
2006-04-26 07:49:00 51°25.872 2°55.867 13.5 12 6 18.8
2006-04-26 07:49:07 51°25.895 2°55.871 13 12 6 18.5
2006-04-26 07:49:11 51°25.908 2°55.872 12.3 12.1 5 18.1
2006-04-26 07:49:16 51°25.925 2°55.875 12 12.1 4 16
2006-04-26 07:49:21 51°25.941 2°55.876 12.3 11.9 5 17
2006-04-26 07:49:26 51°25.957 2°55.88 11.5 11.7 7 17.8
2006-04-26 07:49:31 51°25.973 2°55.882 13 11.8 6 18.4
2006-04-26 07:49:36 51°25.99 2°55.886 12.8 11.8 6 18.5
2006-04-26 07:49:40 51°26.002 2°55.889 14.2 11.7 8 16.3
2006-04-26 07:49:47 51°26.025 2°55.894 14.6 11.6 7 16.8
2006-04-26 07:49:51 51°26.038 2°55.896 14.5 11.6 8 17.2
2006-04-26 07:49:56 51°26.054 2°55.9 14.7 11.6 7 17.6
2006-04-26 07:50:00 51°26.067 2°55.904 15.1 11.7 9 18.1
2006-04-26 07:50:06 51°26.086 2°55.907 15.2 11.8 8 18.4
2006-04-26 07:50:12 51°26.105 2°55.911 13.4 11.7 6 18.7
2006-04-26 07:50:16 51°26.118 2°55.914 14.3 11.8 7 18.3
2006-04-26 07:50:21 51°26.135 2°55.916 13.8 11.8 5 18.3
2006-04-26 07:50:24 51°26.144 2°55.919 13.3 11.8 9 18.6
2006-04-26 07:50:31 51°26.167 2°55.923 14 11.8 6 18.6
2006-04-26 07:50:36 51°26.183 2°55.926 13.9 11.8 8 19.1
2006-04-26 07:50:40 51°26.196 2°55.928 13.5 11.8 6 18.9
2006-04-26 07:50:46 51°26.216 2°55.931 13.7 11.9 6 18.5
2006-04-26 07:50:51 51°26.232 2°55.934 13.1 11.9 6 19.2
2006-04-26 07:50:57 51°26.253 2°55.936 12.9 12 4 19.3
2006-04-26 07:51:02 51°26.269 2°55.937 11.8 12.1 3 19.5
2006-04-26 07:51:07 51°26.286 2°55.938 10.3 12 3 19.8
2006-04-26 07:51:12 51°26.302 2°55.94 10.8 12 3 20.1
2006-04-26 07:51:16 51°26.316 2°55.941 11.3 12 3 20.5
2006-04-26 07:51:22 51°26.335 2°55.943 11.3 11.8 3 20.6
2006-04-26 07:51:27 51°26.352 2°55.945 11.4 11.9 4 21.1
2006-04-26 07:51:32 51°26.368 2°55.947 11.7 11.9 5 21.3
2006-04-26 07:51:36 51°26.381 2°55.948 12.3 11.9 3 21.5
2006-04-26 07:51:41 51°26.398 2°55.95 12.3 11.9 5 22
2006-04-26 07:51:47 51°26.417 2°55.952 12.1 11.8 3 22.2
2006-04-26 07:51:51 51°26.43 2°55.953 11.9 11.7 4 22.5
2006-04-26 07:51:56 51°26.447 2°55.956 12.2 11.7 4 22.6
2006-04-26 07:52:00 51°26.46 2°55.957 12.8 11.7 5 22.7
2006-04-26 07:52:06 51°26.479 2°55.959 13.1 11.8 3 22.8
2006-04-26 07:52:12 51°26.498 2°55.963 12.8 11.6 6 23.1
2006-04-26 07:52:16 51°26.511 2°55.964 14.1 11.6 4 23.2
2006-04-26 07:52:21 51°26.527 2°55.966 13.4 11.6 5 23.5
2006-04-26 07:52:26 51°26.543 2°55.97 13.5 11.7 7 23.6
2006-04-26 07:52:32 51°26.563 2°55.972 14.8 11.8 5 23.7
2006-04-26 07:52:36 51°26.575 2°55.975 14.3 11.7 9 24
2006-04-26 07:52:40 51°26.588 2°55.976 14.5 11.7 2 24.3
2006-04-26 07:52:46 51°26.608 2°55.979 13.2 11.6 7 24.5
2006-04-26 07:52:51 51°26.624 2°55.98 14.2 11.7 5 24.7
2006-04-26 07:52:57 51°26.644 2°55.983 14.3 11.8 3 24.9
2006-04-26 07:52:59 51°26.65 2°55.984 13.6 11.8 4 25
2006-04-26 07:53:06 51°26.673 2°55.986 13.3 11.7 4 25.2
2006-04-26 07:53:12 51°26.692 2°55.989 13.3 11.7 5 25.5
2006-04-26 07:53:17 51°26.709 2°55.991 13.4 11.7 4 25.6
2006-04-26 07:53:21 51°26.721 2°55.993 13.4 11.7 6 25.8
2006-04-26 07:53:26 51°26.738 2°55.995 14 11.8 5 25.9
2006-04-26 07:53:32 51°26.757 2°55.999 14.5 11.7 6 25.8
2006-04-26 07:53:36 51°26.77 2°56.001 15 11.8 6 26.1
2006-04-26 07:53:42 51°26.79 2°56.003 14.9 11.8 4 26.4
2006-04-26 07:53:47 51°26.806 2°56.006 14.9 11.7 6 26.3
2006-04-26 07:53:51 51°26.819 2°56.006 13.8 11.8 3 26.5
2006-04-26 07:53:56 51°26.835 2°56.009 13.6 11.7 6 26.5
2006-04-26 07:54:02 51°26.854 2°56.011 13.5 11.7 5 26.5
2006-04-26 07:54:07 51°26.87 2°56.014 13.7 11.6 8 26.7
2006-04-26 07:54:12 51°26.886 2°56.017 15.3 11.7 6 26.9
2006-04-26 07:54:17 51°26.902 2°56.019 15.2 11.8 5 27.1
2006-04-26 07:54:20 51°26.912 2°56.021 13.9 11.8 5 27.3
2006-04-26 07:54:27 51°26.935 2°56.023 13.3 11.8 3 27.4
2006-04-26 07:54:32 51°26.951 2°56.026 12.8 11.8 6 27.4
2006-04-26 07:54:35 51°26.961 2°56.026 13.8 11.9 2 27.5
2006-04-26 07:54:41 51°26.981 2°56.028 12.5 11.8 5 27.5
2006-04-26 07:54:46 51°26.998 2°56.028 12.9 11.9 1 27.5
2006-04-26 07:54:51 51°27.014 2°56.03 11.8 11.9 1 27.3
2006-04-26 07:54:56 51°27.031 2°56.03 11.6 11.9 3 27
2006-04-26 07:55:02 51°27.05 2°56.033 11.6 11.9 1 26.5
2006-04-26 07:55:06 51°27.063 2°56.033 12.6 11.9 2 26.2
2006-04-26 07:55:11 51°27.079 2°56.034 12.1 11.8 2 25.2
2006-04-26 07:55:17 51°27.099 2°56.035 12.3 11.9 3 23.5
2006-04-26 07:55:22 51°27.115 2°56.037 12.3 11.8 2 26.2
2006-04-26 07:55:26 51°27.129 2°56.038 12.7 11.9 3 27.5
2006-04-26 07:55:31 51°27.145 2°56.04 13.2 11.9 4 27.9
2006-04-26 07:55:36 51°27.162 2°56.042 13.3 11.9 4 27.9
2006-04-26 07:55:41 51°27.178 2°56.044 13.2 11.9 4 27.8
2006-04-26 07:55:47 51°27.198 2°56.047 13.9 11.9 5 27.8
2006-04-26 07:55:51 51°27.211 2°56.048 13.5 11.8 5 27.9
2006-04-26 07:55:56 51°27.227 2°56.05 13.8 11.9 4 27.8
2006-04-26 07:56:02 51°27.247 2°56.053 14.1 11.9 5 28
2006-04-26 07:56:07 51°27.263 2°56.056 14.1 11.8 5 28.3
2006-04-26 07:56:11 51°27.276 2°56.057 14.5 11.9 4 28.4
2006-04-26 07:56:17 51°27.296 2°56.06 13.8 11.9 4 28.5
2006-04-26 07:56:22 51°27.313 2°56.061 14.4 11.9 4 28.7
2006-04-26 07:56:27 51°27.329 2°56.063 13.1 12 4 28.8
2006-04-26 07:56:31 51°27.343 2°56.064 12.9 12 2 28.4
2006-04-26 07:56:37 51°27.363 2°56.066 12.1 12 2 28.2
2006-04-26 07:56:40 51°27.373 2°56.067 12.7 12 3 28.4
2006-04-26 07:56:47 51°27.396 2°56.07 13 11.9 4 28.4
2006-04-26 07:56:51 51°27.409 2°56.072 14 12 6 28.4
2006-04-26 07:56:57 51°27.429 2°56.074 14.5 12.1 3 28.7
2006-04-26 07:57:02 51°27.445 2°56.077 13.8 12.1 5 28.8
2006-04-26 07:57:07 51°27.462 2°56.079 14.4 12 4 29
2006-04-26 07:57:12 51°27.479 2°56.08 13.7 12.1 3 29.3
2006-04-26 07:57:16 51°27.492 2°56.082 13 12 6 29.2